sensor_id;sensor_type;location;lat;lon;timestamp;P1;durP1;ratioP1;P2;durP2;ratioP2
21420;SDS011;10871;50.144;8.428;2023-07-29T00:01:48;7.20;;;6.50;;
21420;SDS011;10871;50.144;8.428;2023-07-29T00:04:15;7.40;;;5.25;;
21420;SDS011;10871;50.144;8.428;2023-07-29T00:06:42;7.60;;;5.03;;
21420;SDS011;10871;50.144;8.428;2023-07-29T00:09:08;6.13;;;5.55;;
21420;SDS011;10871;50.144;8.428;2023-07-29T00:11:35;6.93;;;5.28;;
21420;SDS011;10871;50.144;8.428;2023-07-29T00:14:01;6.55;;;5.57;;
21420;SDS011;10871;50.144;8.428;2023-07-29T00:16:28;15.25;;;7.72;;
21420;SDS011;10871;50.144;8.428;2023-07-29T00:18:54;10.55;;;6.60;;
21420;SDS011;10871;50.144;8.428;2023-07-29T00:21:21;9.77;;;7.00;;
21420;SDS011;10871;50.144;8.428;2023-07-29T00:23:47;11.55;;;7.70;;
21420;SDS011;10871;50.144;8.428;2023-07-29T00:26:13;9.57;;;8.13;;
21420;SDS011;10871;50.144;8.428;2023-07-29T00:28:40;9.27;;;8.48;;
21420;SDS011;10871;50.144;8.428;2023-07-29T00:31:06;10.05;;;8.23;;
21420;SDS011;10871;50.144;8.428;2023-07-29T00:33:33;10.52;;;9.50;;
21420;SDS011;10871;50.144;8.428;2023-07-29T00:36:00;11.43;;;9.27;;
21420;SDS011;10871;50.144;8.428;2023-07-29T00:38:29;12.38;;;10.63;;
21420;SDS011;10871;50.144;8.428;2023-07-29T00:40:59;11.00;;;9.57;;
21420;SDS011;10871;50.144;8.428;2023-07-29T00:43:26;12.10;;;10.90;;
21420;SDS011;10871;50.144;8.428;2023-07-29T00:45:53;11.05;;;9.93;;
21420;SDS011;10871;50.144;8.428;2023-07-29T00:48:19;12.68;;;10.63;;
21420;SDS011;10871;50.144;8.428;2023-07-29T00:50:46;11.05;;;9.70;;
21420;SDS011;10871;50.144;8.428;2023-07-29T00:53:12;14.00;;;12.40;;
21420;SDS011;10871;50.144;8.428;2023-07-29T00:55:38;14.18;;;12.77;;
21420;SDS011;10871;50.144;8.428;2023-07-29T00:58:05;15.02;;;12.05;;
21420;SDS011;10871;50.144;8.428;2023-07-29T01:00:31;15.35;;;12.95;;
21420;SDS011;10871;50.144;8.428;2023-07-29T01:02:58;16.40;;;13.35;;
21420;SDS011;10871;50.144;8.428;2023-07-29T01:05:26;12.48;;;11.20;;
21420;SDS011;10871;50.144;8.428;2023-07-29T01:10:47;17.20;;;12.02;;
21420;SDS011;10871;50.144;8.428;2023-07-29T01:13:18;16.45;;;13.95;;
21420;SDS011;10871;50.144;8.428;2023-07-29T01:18:17;17.27;;;14.40;;
21420;SDS011;10871;50.144;8.428;2023-07-29T01:20:45;17.17;;;13.93;;
21420;SDS011;10871;50.144;8.428;2023-07-29T01:23:12;17.98;;;15.25;;
21420;SDS011;10871;50.144;8.428;2023-07-29T01:25:39;16.05;;;14.38;;
21420;SDS011;10871;50.144;8.428;2023-07-29T01:28:05;15.65;;;13.98;;
21420;SDS011;10871;50.144;8.428;2023-07-29T01:30:40;15.82;;;13.23;;
21420;SDS011;10871;50.144;8.428;2023-07-29T01:33:13;14.98;;;13.43;;
21420;SDS011;10871;50.144;8.428;2023-07-29T01:35:42;18.50;;;13.90;;
21420;SDS011;10871;50.144;8.428;2023-07-29T01:38:13;15.00;;;13.50;;
21420;SDS011;10871;50.144;8.428;2023-07-29T01:40:40;18.10;;;13.57;;
21420;SDS011;10871;50.144;8.428;2023-07-29T01:43:07;14.07;;;12.57;;
21420;SDS011;10871;50.144;8.428;2023-07-29T01:45:34;17.60;;;12.15;;
21420;SDS011;10871;50.144;8.428;2023-07-29T01:48:07;17.45;;;13.30;;
21420;SDS011;10871;50.144;8.428;2023-07-29T01:50:34;16.70;;;13.25;;
21420;SDS011;10871;50.144;8.428;2023-07-29T01:53:00;15.57;;;13.90;;
21420;SDS011;10871;50.144;8.428;2023-07-29T01:55:27;19.02;;;15.07;;
21420;SDS011;10871;50.144;8.428;2023-07-29T01:57:53;19.05;;;13.48;;
21420;SDS011;10871;50.144;8.428;2023-07-29T02:00:21;15.20;;;13.60;;
21420;SDS011;10871;50.144;8.428;2023-07-29T02:02:48;19.75;;;15.60;;
21420;SDS011;10871;50.144;8.428;2023-07-29T02:05:14;18.33;;;15.75;;
21420;SDS011;10871;50.144;8.428;2023-07-29T02:07:41;18.90;;;16.85;;
21420;SDS011;10871;50.144;8.428;2023-07-29T02:10:07;19.50;;;16.80;;
21420;SDS011;10871;50.144;8.428;2023-07-29T02:12:34;20.27;;;18.13;;
21420;SDS011;10871;50.144;8.428;2023-07-29T02:15:01;20.88;;;17.48;;
21420;SDS011;10871;50.144;8.428;2023-07-29T02:17:27;19.88;;;16.27;;
21420;SDS011;10871;50.144;8.428;2023-07-29T02:19:53;23.50;;;19.30;;
21420;SDS011;10871;50.144;8.428;2023-07-29T02:22:20;24.27;;;19.70;;
21420;SDS011;10871;50.144;8.428;2023-07-29T02:24:46;25.92;;;20.45;;
21420;SDS011;10871;50.144;8.428;2023-07-29T02:27:13;24.10;;;19.60;;
21420;SDS011;10871;50.144;8.428;2023-07-29T02:29:40;24.83;;;20.17;;
21420;SDS011;10871;50.144;8.428;2023-07-29T02:32:07;31.40;;;22.02;;
21420;SDS011;10871;50.144;8.428;2023-07-29T02:34:34;30.50;;;23.05;;
21420;SDS011;10871;50.144;8.428;2023-07-29T02:37:01;27.40;;;22.15;;
21420;SDS011;10871;50.144;8.428;2023-07-29T02:39:27;26.30;;;21.90;;
21420;SDS011;10871;50.144;8.428;2023-07-29T02:41:54;25.63;;;20.73;;
21420;SDS011;10871;50.144;8.428;2023-07-29T02:44:22;22.83;;;18.98;;
21420;SDS011;10871;50.144;8.428;2023-07-29T02:46:48;22.70;;;19.33;;
21420;SDS011;10871;50.144;8.428;2023-07-29T02:49:14;23.25;;;18.77;;
21420;SDS011;10871;50.144;8.428;2023-07-29T02:51:41;21.25;;;17.52;;
21420;SDS011;10871;50.144;8.428;2023-07-29T02:54:07;17.85;;;15.35;;
21420;SDS011;10871;50.144;8.428;2023-07-29T02:56:34;19.42;;;15.40;;
21420;SDS011;10871;50.144;8.428;2023-07-29T02:59:01;17.67;;;15.77;;
21420;SDS011;10871;50.144;8.428;2023-07-29T03:01:29;15.75;;;13.27;;
21420;SDS011;10871;50.144;8.428;2023-07-29T03:03:55;14.55;;;13.05;;
21420;SDS011;10871;50.144;8.428;2023-07-29T03:06:22;15.60;;;13.15;;
21420;SDS011;10871;50.144;8.428;2023-07-29T03:08:48;14.38;;;12.77;;
21420;SDS011;10871;50.144;8.428;2023-07-29T03:11:15;16.58;;;13.05;;
21420;SDS011;10871;50.144;8.428;2023-07-29T03:13:42;15.07;;;13.25;;
21420;SDS011;10871;50.144;8.428;2023-07-29T03:16:18;16.17;;;13.65;;
21420;SDS011;10871;50.144;8.428;2023-07-29T03:18:50;17.98;;;15.20;;
21420;SDS011;10871;50.144;8.428;2023-07-29T03:21:17;17.80;;;14.27;;
21420;SDS011;10871;50.144;8.428;2023-07-29T03:23:43;21.23;;;15.75;;
21420;SDS011;10871;50.144;8.428;2023-07-29T03:26:10;16.85;;;14.40;;
21420;SDS011;10871;50.144;8.428;2023-07-29T03:28:41;18.67;;;15.25;;
21420;SDS011;10871;50.144;8.428;2023-07-29T03:31:08;17.45;;;15.57;;
21420;SDS011;10871;50.144;8.428;2023-07-29T03:33:35;20.00;;;14.77;;
21420;SDS011;10871;50.144;8.428;2023-07-29T03:36:02;18.58;;;14.40;;
21420;SDS011;10871;50.144;8.428;2023-07-29T03:38:29;15.38;;;13.02;;
21420;SDS011;10871;50.144;8.428;2023-07-29T03:40:55;15.30;;;13.57;;
21420;SDS011;10871;50.144;8.428;2023-07-29T03:43:22;16.70;;;12.93;;
21420;SDS011;10871;50.144;8.428;2023-07-29T03:45:49;15.38;;;13.38;;
21420;SDS011;10871;50.144;8.428;2023-07-29T03:48:15;16.25;;;13.10;;
21420;SDS011;10871;50.144;8.428;2023-07-29T03:50:41;14.43;;;12.93;;
21420;SDS011;10871;50.144;8.428;2023-07-29T03:53:08;15.75;;;13.88;;
21420;SDS011;10871;50.144;8.428;2023-07-29T03:55:36;13.90;;;12.45;;
21420;SDS011;10871;50.144;8.428;2023-07-29T03:58:02;17.20;;;13.20;;
21420;SDS011;10871;50.144;8.428;2023-07-29T04:00:29;15.27;;;13.27;;
21420;SDS011;10871;50.144;8.428;2023-07-29T04:02:55;13.35;;;11.32;;
21420;SDS011;10871;50.144;8.428;2023-07-29T04:05:22;13.73;;;12.13;;
21420;SDS011;10871;50.144;8.428;2023-07-29T04:07:49;15.00;;;12.57;;
21420;SDS011;10871;50.144;8.428;2023-07-29T04:10:15;12.75;;;11.43;;
21420;SDS011;10871;50.144;8.428;2023-07-29T04:12:42;13.05;;;11.75;;
21420;SDS011;10871;50.144;8.428;2023-07-29T04:15:09;12.07;;;10.90;;
21420;SDS011;10871;50.144;8.428;2023-07-29T04:17:35;13.73;;;11.38;;
21420;SDS011;10871;50.144;8.428;2023-07-29T04:20:03;14.75;;;11.82;;
21420;SDS011;10871;50.144;8.428;2023-07-29T04:22:33;12.70;;;11.00;;
21420;SDS011;10871;50.144;8.428;2023-07-29T04:24:59;13.48;;;11.88;;
21420;SDS011;10871;50.144;8.428;2023-07-29T04:27:25;13.80;;;10.63;;
21420;SDS011;10871;50.144;8.428;2023-07-29T04:29:52;13.07;;;11.77;;
21420;SDS011;10871;50.144;8.428;2023-07-29T04:32:18;12.88;;;11.57;;
21420;SDS011;10871;50.144;8.428;2023-07-29T04:34:45;12.10;;;10.90;;
21420;SDS011;10871;50.144;8.428;2023-07-29T04:37:11;12.52;;;11.23;;
21420;SDS011;10871;50.144;8.428;2023-07-29T04:39:37;11.80;;;10.40;;
21420;SDS011;10871;50.144;8.428;2023-07-29T04:42:04;11.40;;;9.82;;
21420;SDS011;10871;50.144;8.428;2023-07-29T04:44:30;10.10;;;9.20;;
21420;SDS011;10871;50.144;8.428;2023-07-29T04:46:57;11.90;;;10.65;;
21420;SDS011;10871;50.144;8.428;2023-07-29T04:49:23;10.93;;;9.93;;
21420;SDS011;10871;50.144;8.428;2023-07-29T04:51:49;11.20;;;9.52;;
21420;SDS011;10871;50.144;8.428;2023-07-29T04:54:16;13.50;;;9.30;;
21420;SDS011;10871;50.144;8.428;2023-07-29T04:56:42;11.65;;;9.52;;
21420;SDS011;10871;50.144;8.428;2023-07-29T04:59:08;11.02;;;9.93;;
21420;SDS011;10871;50.144;8.428;2023-07-29T05:01:35;12.43;;;10.88;;
21420;SDS011;10871;50.144;8.428;2023-07-29T05:04:02;12.63;;;10.65;;
21420;SDS011;10871;50.144;8.428;2023-07-29T05:06:28;11.95;;;10.85;;
21420;SDS011;10871;50.144;8.428;2023-07-29T05:08:59;12.00;;;10.55;;
21420;SDS011;10871;50.144;8.428;2023-07-29T05:11:38;13.00;;;11.32;;
21420;SDS011;10871;50.144;8.428;2023-07-29T05:14:04;12.70;;;11.48;;
21420;SDS011;10871;50.144;8.428;2023-07-29T05:16:32;10.75;;;9.75;;
21420;SDS011;10871;50.144;8.428;2023-07-29T05:18:59;11.15;;;9.38;;
21420;SDS011;10871;50.144;8.428;2023-07-29T05:21:26;10.65;;;9.75;;
21420;SDS011;10871;50.144;8.428;2023-07-29T05:23:52;10.48;;;9.57;;
21420;SDS011;10871;50.144;8.428;2023-07-29T05:26:19;11.07;;;10.00;;
21420;SDS011;10871;50.144;8.428;2023-07-29T05:28:45;11.55;;;8.88;;
21420;SDS011;10871;50.144;8.428;2023-07-29T05:31:12;9.15;;;8.27;;
21420;SDS011;10871;50.144;8.428;2023-07-29T05:33:38;8.88;;;8.10;;
21420;SDS011;10871;50.144;8.428;2023-07-29T05:36:06;9.80;;;8.90;;
21420;SDS011;10871;50.144;8.428;2023-07-29T05:38:32;9.00;;;8.02;;
21420;SDS011;10871;50.144;8.428;2023-07-29T05:40:58;8.82;;;8.07;;
21420;SDS011;10871;50.144;8.428;2023-07-29T05:43:25;9.55;;;8.60;;
21420;SDS011;10871;50.144;8.428;2023-07-29T05:45:51;8.40;;;7.70;;
21420;SDS011;10871;50.144;8.428;2023-07-29T05:48:19;8.80;;;7.35;;
21420;SDS011;10871;50.144;8.428;2023-07-29T05:50:45;9.70;;;7.05;;
21420;SDS011;10871;50.144;8.428;2023-07-29T05:53:13;6.95;;;5.95;;
21420;SDS011;10871;50.144;8.428;2023-07-29T05:55:40;6.65;;;5.63;;
21420;SDS011;10871;50.144;8.428;2023-07-29T05:58:06;5.35;;;4.85;;
21420;SDS011;10871;50.144;8.428;2023-07-29T06:00:33;6.30;;;5.00;;
21420;SDS011;10871;50.144;8.428;2023-07-29T06:03:01;5.47;;;4.97;;
21420;SDS011;10871;50.144;8.428;2023-07-29T06:05:27;6.38;;;5.68;;
21420;SDS011;10871;50.144;8.428;2023-07-29T06:07:54;10.93;;;6.10;;
21420;SDS011;10871;50.144;8.428;2023-07-29T06:10:20;9.45;;;6.40;;
21420;SDS011;10871;50.144;8.428;2023-07-29T06:12:48;7.72;;;6.25;;
21420;SDS011;10871;50.144;8.428;2023-07-29T06:15:14;7.63;;;6.32;;
21420;SDS011;10871;50.144;8.428;2023-07-29T06:17:41;8.13;;;7.05;;
21420;SDS011;10871;50.144;8.428;2023-07-29T06:20:08;7.85;;;7.10;;
21420;SDS011;10871;50.144;8.428;2023-07-29T06:22:34;7.43;;;6.72;;
21420;SDS011;10871;50.144;8.428;2023-07-29T06:25:01;9.43;;;7.32;;
21420;SDS011;10871;50.144;8.428;2023-07-29T06:27:27;8.20;;;6.85;;
21420;SDS011;10871;50.144;8.428;2023-07-29T06:29:54;6.97;;;6.28;;
21420;SDS011;10871;50.144;8.428;2023-07-29T06:32:20;7.45;;;6.40;;
21420;SDS011;10871;50.144;8.428;2023-07-29T06:34:47;6.97;;;6.25;;
21420;SDS011;10871;50.144;8.428;2023-07-29T06:37:13;7.72;;;6.60;;
21420;SDS011;10871;50.144;8.428;2023-07-29T06:39:39;8.98;;;7.10;;
21420;SDS011;10871;50.144;8.428;2023-07-29T06:42:06;7.60;;;6.85;;
21420;SDS011;10871;50.144;8.428;2023-07-29T06:44:32;8.40;;;7.18;;
21420;SDS011;10871;50.144;8.428;2023-07-29T06:46:58;7.63;;;6.93;;
21420;SDS011;10871;50.144;8.428;2023-07-29T06:49:25;9.48;;;7.38;;
21420;SDS011;10871;50.144;8.428;2023-07-29T06:51:51;7.93;;;7.13;;
21420;SDS011;10871;50.144;8.428;2023-07-29T06:54:18;9.07;;;8.18;;
21420;SDS011;10871;50.144;8.428;2023-07-29T06:56:44;9.05;;;8.15;;
21420;SDS011;10871;50.144;8.428;2023-07-29T06:59:10;9.10;;;8.30;;
21420;SDS011;10871;50.144;8.428;2023-07-29T07:01:37;8.57;;;7.78;;
21420;SDS011;10871;50.144;8.428;2023-07-29T07:04:03;7.97;;;7.18;;
21420;SDS011;10871;50.144;8.428;2023-07-29T07:06:29;7.97;;;6.22;;
21420;SDS011;10871;50.144;8.428;2023-07-29T07:08:56;5.72;;;5.05;;
21420;SDS011;10871;50.144;8.428;2023-07-29T07:11:22;5.15;;;4.65;;
21420;SDS011;10871;50.144;8.428;2023-07-29T07:13:49;7.88;;;5.32;;
21420;SDS011;10871;50.144;8.428;2023-07-29T07:16:15;5.57;;;5.07;;
21420;SDS011;10871;50.144;8.428;2023-07-29T07:18:41;6.25;;;4.70;;
21420;SDS011;10871;50.144;8.428;2023-07-29T07:21:08;5.18;;;4.78;;
21420;SDS011;10871;50.144;8.428;2023-07-29T07:23:34;4.47;;;4.07;;
21420;SDS011;10871;50.144;8.428;2023-07-29T07:26:01;3.97;;;3.67;;
21420;SDS011;10871;50.144;8.428;2023-07-29T07:28:27;4.53;;;3.80;;
21420;SDS011;10871;50.144;8.428;2023-07-29T07:30:53;4.40;;;4.00;;
21420;SDS011;10871;50.144;8.428;2023-07-29T07:33:22;4.00;;;3.70;;
21420;SDS011;10871;50.144;8.428;2023-07-29T07:35:48;4.00;;;3.58;;
21420;SDS011;10871;50.144;8.428;2023-07-29T07:38:15;4.10;;;3.75;;
21420;SDS011;10871;50.144;8.428;2023-07-29T07:40:41;3.88;;;3.53;;
21420;SDS011;10871;50.144;8.428;2023-07-29T07:43:07;5.30;;;3.70;;
21420;SDS011;10871;50.144;8.428;2023-07-29T07:45:34;6.45;;;3.60;;
21420;SDS011;10871;50.144;8.428;2023-07-29T07:48:00;4.00;;;3.60;;
21420;SDS011;10871;50.144;8.428;2023-07-29T07:50:29;3.88;;;3.58;;
21420;SDS011;10871;50.144;8.428;2023-07-29T07:52:55;5.30;;;3.90;;
21420;SDS011;10871;50.144;8.428;2023-07-29T07:55:21;4.60;;;3.78;;
21420;SDS011;10871;50.144;8.428;2023-07-29T07:57:48;4.38;;;3.40;;
21420;SDS011;10871;50.144;8.428;2023-07-29T08:00:14;4.57;;;3.40;;
21420;SDS011;10871;50.144;8.428;2023-07-29T08:02:43;3.45;;;3.13;;
21420;SDS011;10871;50.144;8.428;2023-07-29T08:05:09;4.20;;;3.65;;
21420;SDS011;10871;50.144;8.428;2023-07-29T08:07:36;3.53;;;3.22;;
21420;SDS011;10871;50.144;8.428;2023-07-29T08:10:02;5.70;;;5.30;;
21420;SDS011;10871;50.144;8.428;2023-07-29T08:12:29;4.90;;;4.50;;
21420;SDS011;10871;50.144;8.428;2023-07-29T08:14:55;4.15;;;3.70;;
21420;SDS011;10871;50.144;8.428;2023-07-29T08:17:22;5.03;;;3.78;;
21420;SDS011;10871;50.144;8.428;2023-07-29T08:19:48;3.47;;;3.00;;
21420;SDS011;10871;50.144;8.428;2023-07-29T08:22:14;4.70;;;2.65;;
21420;SDS011;10871;50.144;8.428;2023-07-29T08:24:43;2.88;;;2.67;;
21420;SDS011;10871;50.144;8.428;2023-07-29T08:27:09;2.90;;;2.70;;
21420;SDS011;10871;50.144;8.428;2023-07-29T08:29:36;3.60;;;3.30;;
21420;SDS011;10871;50.144;8.428;2023-07-29T08:32:02;3.80;;;2.92;;
21420;SDS011;10871;50.144;8.428;2023-07-29T08:34:29;3.85;;;3.03;;
21420;SDS011;10871;50.144;8.428;2023-07-29T08:36:55;2.50;;;2.30;;
21420;SDS011;10871;50.144;8.428;2023-07-29T08:39:22;3.80;;;3.53;;
21420;SDS011;10871;50.144;8.428;2023-07-29T08:42:00;3.00;;;2.70;;
21420;SDS011;10871;50.144;8.428;2023-07-29T08:44:29;3.35;;;2.72;;
21420;SDS011;10871;50.144;8.428;2023-07-29T08:46:56;4.07;;;2.50;;
21420;SDS011;10871;50.144;8.428;2023-07-29T08:49:23;2.42;;;2.22;;
21420;SDS011;10871;50.144;8.428;2023-07-29T08:51:51;2.97;;;2.30;;
21420;SDS011;10871;50.144;8.428;2023-07-29T08:54:19;3.03;;;2.20;;
21420;SDS011;10871;50.144;8.428;2023-07-29T08:56:46;2.15;;;2.00;;
21420;SDS011;10871;50.144;8.428;2023-07-29T08:59:12;2.67;;;2.00;;
21420;SDS011;10871;50.144;8.428;2023-07-29T09:01:39;2.00;;;1.80;;
21420;SDS011;10871;50.144;8.428;2023-07-29T09:04:06;2.05;;;1.90;;
21420;SDS011;10871;50.144;8.428;2023-07-29T09:06:32;2.67;;;1.75;;
21420;SDS011;10871;50.144;8.428;2023-07-29T09:08:59;2.22;;;2.00;;
21420;SDS011;10871;50.144;8.428;2023-07-29T09:11:26;1.98;;;1.88;;
21420;SDS011;10871;50.144;8.428;2023-07-29T09:13:53;3.45;;;1.80;;
21420;SDS011;10871;50.144;8.428;2023-07-29T09:16:20;1.70;;;1.60;;
21420;SDS011;10871;50.144;8.428;2023-07-29T09:18:50;1.92;;;1.83;;
21420;SDS011;10871;50.144;8.428;2023-07-29T09:21:17;2.28;;;1.50;;
21420;SDS011;10871;50.144;8.428;2023-07-29T09:23:44;1.77;;;1.67;;
21420;SDS011;10871;50.144;8.428;2023-07-29T09:26:10;2.00;;;1.70;;
21420;SDS011;10871;50.144;8.428;2023-07-29T09:28:37;2.85;;;2.38;;
21420;SDS011;10871;50.144;8.428;2023-07-29T09:31:04;4.35;;;2.25;;
21420;SDS011;10871;50.144;8.428;2023-07-29T09:33:34;5.13;;;2.10;;
21420;SDS011;10871;50.144;8.428;2023-07-29T09:36:10;2.77;;;2.67;;
21420;SDS011;10871;50.144;8.428;2023-07-29T09:38:36;1.70;;;1.60;;
21420;SDS011;10871;50.144;8.428;2023-07-29T09:41:03;3.25;;;1.77;;
21420;SDS011;10871;50.144;8.428;2023-07-29T09:43:33;2.75;;;2.17;;
21420;SDS011;10871;50.144;8.428;2023-07-29T09:46:04;3.20;;;3.00;;
21420;SDS011;10871;50.144;8.428;2023-07-29T09:48:37;5.03;;;2.60;;
21420;SDS011;10871;50.144;8.428;2023-07-29T09:51:14;4.85;;;4.05;;
21420;SDS011;10871;50.144;8.428;2023-07-29T09:53:44;2.13;;;2.03;;
21420;SDS011;10871;50.144;8.428;2023-07-29T09:56:16;8.73;;;8.10;;
21420;SDS011;10871;50.144;8.428;2023-07-29T09:58:43;3.42;;;3.22;;
21420;SDS011;10871;50.144;8.428;2023-07-29T10:01:11;4.32;;;2.30;;
21420;SDS011;10871;50.144;8.428;2023-07-29T10:03:38;2.33;;;2.13;;
21420;SDS011;10871;50.144;8.428;2023-07-29T10:06:05;2.33;;;2.15;;
21420;SDS011;10871;50.144;8.428;2023-07-29T10:08:32;2.20;;;2.00;;
21420;SDS011;10871;50.144;8.428;2023-07-29T10:11:01;1.70;;;1.60;;
21420;SDS011;10871;50.144;8.428;2023-07-29T10:13:28;1.63;;;1.52;;
21420;SDS011;10871;50.144;8.428;2023-07-29T10:15:54;2.30;;;1.90;;
21420;SDS011;10871;50.144;8.428;2023-07-29T10:18:22;2.63;;;1.90;;
21420;SDS011;10871;50.144;8.428;2023-07-29T10:20:50;4.55;;;1.65;;
21420;SDS011;10871;50.144;8.428;2023-07-29T10:23:17;3.03;;;1.83;;
21420;SDS011;10871;50.144;8.428;2023-07-29T10:25:46;3.78;;;1.60;;
21420;SDS011;10871;50.144;8.428;2023-07-29T10:28:14;2.00;;;1.58;;
21420;SDS011;10871;50.144;8.428;2023-07-29T10:30:41;4.07;;;1.70;;
21420;SDS011;10871;50.144;8.428;2023-07-29T10:33:08;3.05;;;2.33;;
21420;SDS011;10871;50.144;8.428;2023-07-29T10:35:36;2.42;;;1.63;;
21420;SDS011;10871;50.144;8.428;2023-07-29T10:38:03;2.05;;;1.70;;
21420;SDS011;10871;50.144;8.428;2023-07-29T10:40:43;1.60;;;1.50;;
21420;SDS011;10871;50.144;8.428;2023-07-29T10:43:11;1.80;;;1.70;;
21420;SDS011;10871;50.144;8.428;2023-07-29T10:45:38;3.85;;;3.05;;
21420;SDS011;10871;50.144;8.428;2023-07-29T10:48:06;5.88;;;5.47;;
21420;SDS011;10871;50.144;8.428;2023-07-29T10:50:32;1.73;;;1.50;;
21420;SDS011;10871;50.144;8.428;2023-07-29T10:52:59;1.83;;;1.70;;
21420;SDS011;10871;50.144;8.428;2023-07-29T10:55:32;2.80;;;1.80;;
21420;SDS011;10871;50.144;8.428;2023-07-29T10:58:08;2.03;;;1.70;;
21420;SDS011;10871;50.144;8.428;2023-07-29T11:00:35;8.25;;;7.63;;
21420;SDS011;10871;50.144;8.428;2023-07-29T11:03:03;20.85;;;19.45;;
21420;SDS011;10871;50.144;8.428;2023-07-29T11:05:42;3.42;;;1.58;;
21420;SDS011;10871;50.144;8.428;2023-07-29T11:08:43;2.42;;;1.52;;
21420;SDS011;10871;50.144;8.428;2023-07-29T11:11:03;1.52;;;1.40;;
21420;SDS011;10871;50.144;8.428;2023-07-29T11:13:30;1.60;;;1.50;;
21420;SDS011;10871;50.144;8.428;2023-07-29T11:15:57;1.55;;;1.45;;
21420;SDS011;10871;50.144;8.428;2023-07-29T11:18:28;1.48;;;1.38;;
21420;SDS011;10871;50.144;8.428;2023-07-29T11:20:56;1.38;;;1.27;;
21420;SDS011;10871;50.144;8.428;2023-07-29T11:23:32;1.88;;;1.30;;
21420;SDS011;10871;50.144;8.428;2023-07-29T11:25:59;3.30;;;1.50;;
21420;SDS011;10871;50.144;8.428;2023-07-29T11:28:26;1.80;;;1.55;;
21420;SDS011;10871;50.144;8.428;2023-07-29T11:30:53;2.05;;;1.33;;
21420;SDS011;10871;50.144;8.428;2023-07-29T11:33:20;1.50;;;1.40;;
21420;SDS011;10871;50.144;8.428;2023-07-29T11:35:48;1.73;;;1.40;;
21420;SDS011;10871;50.144;8.428;2023-07-29T11:38:16;1.58;;;1.40;;
21420;SDS011;10871;50.144;8.428;2023-07-29T11:40:42;2.45;;;1.33;;
21420;SDS011;10871;50.144;8.428;2023-07-29T11:43:09;1.60;;;1.45;;
21420;SDS011;10871;50.144;8.428;2023-07-29T11:45:43;1.60;;;1.50;;
21420;SDS011;10871;50.144;8.428;2023-07-29T11:48:17;1.63;;;1.40;;
21420;SDS011;10871;50.144;8.428;2023-07-29T11:50:44;3.92;;;1.67;;
21420;SDS011;10871;50.144;8.428;2023-07-29T11:53:11;2.38;;;1.95;;
21420;SDS011;10871;50.144;8.428;2023-07-29T11:55:40;2.13;;;1.60;;
21420;SDS011;10871;50.144;8.428;2023-07-29T11:58:07;2.25;;;1.50;;
21420;SDS011;10871;50.144;8.428;2023-07-29T12:00:33;1.50;;;1.40;;
21420;SDS011;10871;50.144;8.428;2023-07-29T12:03:00;1.55;;;1.42;;
21420;SDS011;10871;50.144;8.428;2023-07-29T12:05:26;1.58;;;1.48;;
21420;SDS011;10871;50.144;8.428;2023-07-29T12:07:53;1.50;;;1.40;;
21420;SDS011;10871;50.144;8.428;2023-07-29T12:10:19;1.90;;;1.60;;
21420;SDS011;10871;50.144;8.428;2023-07-29T12:12:47;1.98;;;1.65;;
21420;SDS011;10871;50.144;8.428;2023-07-29T12:15:22;1.48;;;1.38;;
21420;SDS011;10871;50.144;8.428;2023-07-29T12:17:48;1.60;;;1.50;;
21420;SDS011;10871;50.144;8.428;2023-07-29T12:20:15;1.83;;;1.60;;
21420;SDS011;10871;50.144;8.428;2023-07-29T12:22:41;1.92;;;1.63;;
21420;SDS011;10871;50.144;8.428;2023-07-29T12:25:08;1.42;;;1.30;;
21420;SDS011;10871;50.144;8.428;2023-07-29T12:27:34;2.22;;;1.65;;
21420;SDS011;10871;50.144;8.428;2023-07-29T12:30:01;2.53;;;1.50;;
21420;SDS011;10871;50.144;8.428;2023-07-29T12:32:29;2.17;;;1.40;;
21420;SDS011;10871;50.144;8.428;2023-07-29T12:34:56;3.50;;;1.60;;
21420;SDS011;10871;50.144;8.428;2023-07-29T12:37:30;1.85;;;1.58;;
21420;SDS011;10871;50.144;8.428;2023-07-29T12:39:57;1.80;;;1.60;;
21420;SDS011;10871;50.144;8.428;2023-07-29T12:42:23;2.33;;;1.60;;
21420;SDS011;10871;50.144;8.428;2023-07-29T12:44:49;2.30;;;1.77;;
21420;SDS011;10871;50.144;8.428;2023-07-29T12:47:16;3.47;;;1.67;;
21420;SDS011;10871;50.144;8.428;2023-07-29T12:49:42;7.53;;;6.90;;
21420;SDS011;10871;50.144;8.428;2023-07-29T12:52:08;1.80;;;1.60;;
21420;SDS011;10871;50.144;8.428;2023-07-29T12:54:35;4.95;;;1.70;;
21420;SDS011;10871;50.144;8.428;2023-07-29T12:57:01;3.67;;;1.63;;
21420;SDS011;10871;50.144;8.428;2023-07-29T12:59:27;1.90;;;1.80;;
21420;SDS011;10871;50.144;8.428;2023-07-29T13:01:54;2.17;;;1.52;;
21420;SDS011;10871;50.144;8.428;2023-07-29T13:04:20;2.67;;;1.77;;
21420;SDS011;10871;50.144;8.428;2023-07-29T13:06:46;3.28;;;1.70;;
21420;SDS011;10871;50.144;8.428;2023-07-29T13:09:13;1.70;;;1.60;;
21420;SDS011;10871;50.144;8.428;2023-07-29T13:11:39;4.40;;;1.60;;
21420;SDS011;10871;50.144;8.428;2023-07-29T13:14:06;4.50;;;1.85;;
21420;SDS011;10871;50.144;8.428;2023-07-29T13:16:32;1.90;;;1.80;;
21420;SDS011;10871;50.144;8.428;2023-07-29T13:18:58;3.10;;;1.65;;
21420;SDS011;10871;50.144;8.428;2023-07-29T13:21:25;1.98;;;1.83;;
21420;SDS011;10871;50.144;8.428;2023-07-29T13:23:51;1.52;;;1.42;;
21420;SDS011;10871;50.144;8.428;2023-07-29T13:26:18;2.60;;;1.50;;
21420;SDS011;10871;50.144;8.428;2023-07-29T13:28:44;1.92;;;1.73;;
21420;SDS011;10871;50.144;8.428;2023-07-29T13:31:11;1.63;;;1.52;;
21420;SDS011;10871;50.144;8.428;2023-07-29T13:33:37;1.63;;;1.52;;
21420;SDS011;10871;50.144;8.428;2023-07-29T13:36:04;1.95;;;1.75;;
21420;SDS011;10871;50.144;8.428;2023-07-29T13:38:31;1.67;;;1.58;;
21420;SDS011;10871;50.144;8.428;2023-07-29T13:40:57;2.45;;;1.83;;
21420;SDS011;10871;50.144;8.428;2023-07-29T13:43:24;1.80;;;1.70;;
21420;SDS011;10871;50.144;8.428;2023-07-29T13:45:50;3.55;;;1.50;;
21420;SDS011;10871;50.144;8.428;2023-07-29T13:48:17;4.13;;;1.92;;
21420;SDS011;10871;50.144;8.428;2023-07-29T13:50:43;3.17;;;1.63;;
21420;SDS011;10871;50.144;8.428;2023-07-29T13:53:10;2.63;;;1.67;;
21420;SDS011;10871;50.144;8.428;2023-07-29T13:55:36;1.70;;;1.60;;
21420;SDS011;10871;50.144;8.428;2023-07-29T13:58:03;2.53;;;1.50;;
21420;SDS011;10871;50.144;8.428;2023-07-29T14:00:29;2.10;;;1.30;;
21420;SDS011;10871;50.144;8.428;2023-07-29T14:02:55;1.98;;;1.42;;
21420;SDS011;10871;50.144;8.428;2023-07-29T14:05:22;2.22;;;1.52;;
21420;SDS011;10871;50.144;8.428;2023-07-29T14:07:48;1.50;;;1.40;;
21420;SDS011;10871;50.144;8.428;2023-07-29T14:10:15;1.55;;;1.40;;
21420;SDS011;10871;50.144;8.428;2023-07-29T14:12:41;2.40;;;1.70;;
21420;SDS011;10871;50.144;8.428;2023-07-29T14:15:07;4.47;;;1.50;;
21420;SDS011;10871;50.144;8.428;2023-07-29T14:17:34;1.70;;;1.60;;
21420;SDS011;10871;50.144;8.428;2023-07-29T14:20:01;2.03;;;1.60;;
21420;SDS011;10871;50.144;8.428;2023-07-29T14:22:27;3.78;;;1.50;;
21420;SDS011;10871;50.144;8.428;2023-07-29T14:24:53;2.50;;;1.40;;
21420;SDS011;10871;50.144;8.428;2023-07-29T14:27:20;1.83;;;1.73;;
21420;SDS011;10871;50.144;8.428;2023-07-29T14:29:46;1.90;;;1.60;;
21420;SDS011;10871;50.144;8.428;2023-07-29T14:32:12;1.75;;;1.42;;
21420;SDS011;10871;50.144;8.428;2023-07-29T14:34:39;2.20;;;1.60;;
21420;SDS011;10871;50.144;8.428;2023-07-29T14:37:05;1.92;;;1.73;;
21420;SDS011;10871;50.144;8.428;2023-07-29T14:39:31;1.67;;;1.58;;
21420;SDS011;10871;50.144;8.428;2023-07-29T14:41:59;1.90;;;1.67;;
21420;SDS011;10871;50.144;8.428;2023-07-29T14:44:25;2.45;;;1.40;;